Princess Anne, MD (21853)

9:42 AM EST on December 07, 2016 (GMT -0500)
Eastern Shore Lov'N Care LLC | | Change Station

Elev 20 ft 38.21 °N, 75.70 °W | Updated 26 seconds ago

Overcast
Overcast
46.9 °F
Feels Like 43 °F
N
8.9
Wind Variable Wind from NW
Gusts 9.8 mph

Today
High -- | Low -- °F
--% Chance of Precip.
Yesterday
High -- | Low -- °F
Precip. -- in
Pressure 29.99 in
Visibility 4.0 miles
Clouds Overcast 600 ft
Windchill 43 °F
Dew Point 33 °F
Humidity 58%
Rainfall 0.00 in
Snow Depth Not available.
7:06 AM 4:42 PM
First Quarter, 53% visible
METAR KSBY 071354Z 33009G17KT 4SM -RA BR OVC006 07/06 A2999 RMK AO2 RAB12 CIG 005V011 SLP156 P0000 T00670061
Pressure 29.99 in
Visibility 4.0 miles
Clouds Overcast 600 ft
Windchill 43 °F
Dew Point 33 °F
Humidity 58%
Rainfall 0.00 in
Snow Depth Not available.
7:06 AM 4:42 PM
First Quarter, 53% visible
METAR KSBY 071354Z 33009G17KT 4SM -RA BR OVC006 07/06 A2999 RMK AO2 RAB12 CIG 005V011 SLP156 P0000 T00670061

10-Day Weather Forecast

Almanac

Astronomy

Dec. 07, 2016 Rise Set
Actual Time
Civil Twilight
Nautical Twilight
Astronomical Twilight
Moon
Length of Visible Light
Length of Day
Tomorrow will be .
, % of the Moon is Illuminated

Today's Extremes

State Highs State Lows

Community

WunderPhotos

Upload Photos

1,956,116 photos uploaded!

WunderBlog® & News

Nearby

Air Quality

  Air Quality AQ Index Pollutant
Not available.

Snow Depth

Station Depth Elevation

Earthquake Activity

City Distance Mag. Time & Date
Minimum magnitude displayed is 2.5.

Coastal Water Temperatures

Place Temperature

Stations

Nearby Weather Stations

Station Location Temp. Windchill Dew Point Humidity Wind Precip. Elev Updated Type
                   

Watches & Warnings

There are currently no watches in effect.